Time;durP1;ratioP1;P1;durP2;ratioP2;P2;SDS_P1;SDS_P2;PMS_P1;PMS_P2;Temp;Humidity;BMP_temperature;BMP_pressure;BME280_temperature;BME280_humidity;BME280_pressure;Samples;Min_cycle;Max_cycle;Signal;HPM_P1;HPM_P2
2022/12/21 00:01:10;;;;;;;;;;;10.40;99.90;;;;;;5044622;28;19936;-83
2022/12/21 00:03:37;;;;;;;;;;;11.10;99.90;;;;;;5045360;28;19929;-81
2022/12/21 00:06:04;;;;;;;;;;;11.10;99.90;;;;;;5029137;28;19936;-82
2022/12/21 00:08:31;;;;;;;;;;;11.10;99.90;;;;;;5041850;28;19925;-82
2022/12/21 00:10:58;;;;;;;;;;;11.10;99.90;;;;;;5192518;23;20002;-83
2022/12/21 00:13:25;;;;;;;;;;;11.10;99.90;;;;;;4995261;28;19934;-82
2022/12/21 00:15:56;;;;;;;;;;;11.10;99.90;;;;;;5006798;28;19946;-83
2022/12/21 00:18:24;;;;;;;;;;;11.10;99.90;;;;;;4972210;28;19926;-83
2022/12/21 00:21:00;;;;;;;;;;;11.10;99.90;;;;;;4968037;28;19988;-83
2022/12/21 00:23:28;;;;;;;;;;;11.10;99.90;;;;;;4967443;28;19935;-82
2022/12/21 00:25:55;;;;;;;;;;;11.10;99.90;;;;;;4986211;28;20016;-82
2022/12/21 00:28:22;;;;;;;;;;;11.10;99.90;;;;;;4984942;28;19938;-83
2022/12/21 00:30:49;;;;;;;;;;;11.10;99.90;;;;;;4979153;28;19941;-83
2022/12/21 00:33:16;;;;;;;;;;;11.10;99.90;;;;;;4981948;28;19914;-83
2022/12/21 00:35:48;;;;;;;;;;;11.10;99.90;;;;;;4970708;28;19930;-83
2022/12/21 00:38:16;;;;;;;;;;;11.10;99.90;;;;;;4981528;28;19934;-83
2022/12/21 00:40:43;;;;;;;;;;;11.10;99.90;;;;;;4973482;28;19934;-83
2022/12/21 00:43:10;;;;;;;;;;;11.20;99.90;;;;;;4973249;28;19930;-83
2022/12/21 00:45:37;;;;;;;;;;;11.20;99.90;;;;;;4975796;28;19937;-83
2022/12/21 00:48:04;;;;;;;;;;;11.20;99.90;;;;;;4990392;28;20036;-83
2022/12/21 00:50:32;;;;;;;;;;;11.10;99.90;;;;;;4986196;28;19934;-84
2022/12/21 00:53:00;;;;;;;;;;;11.20;99.90;;;;;;4974753;28;19936;-82
2022/12/21 00:55:27;;;;;;;;;;;11.20;99.90;;;;;;4988778;28;19926;-83
2022/12/21 00:57:54;;;;;;;;;;;11.20;99.90;;;;;;4989603;28;20022;-82
2022/12/21 01:00:21;;;;;;;;;;;11.20;99.90;;;;;;4993544;28;19930;-82
2022/12/21 01:02:48;;;;;;;;;;;11.20;99.90;;;;;;4990289;28;19929;-83
2022/12/21 01:05:14;;;;;;;;;;;11.20;99.90;;;;;;4966685;28;19930;-83
2022/12/21 01:07:41;;;;;;;;;;;11.20;99.90;;;;;;4969680;28;19945;-83
2022/12/21 01:10:10;;;;;;;;;;;11.30;99.90;;;;;;4969024;28;20025;-83
2022/12/21 01:12:37;;;;;;;;;;;11.30;99.90;;;;;;4970241;28;19932;-83
2022/12/21 01:15:07;;;;;;;;;;;11.30;99.90;;;;;;4991846;28;19944;-83
2022/12/21 01:17:35;;;;;;;;;;;11.30;99.90;;;;;;4989162;28;20012;-83
2022/12/21 01:20:02;;;;;;;;;;;11.30;99.90;;;;;;4970181;28;19935;-81
2022/12/21 01:22:29;;;;;;;;;;;11.30;99.90;;;;;;4982628;28;19946;-82
2022/12/21 01:24:55;;;;;;;;;;;11.30;99.90;;;;;;4970818;28;19937;-83
2022/12/21 01:27:23;;;;;;;;;;;11.20;99.90;;;;;;4971116;28;19970;-83
2022/12/21 01:29:50;;;;;;;;;;;11.20;99.90;;;;;;4976595;28;19936;-83
2022/12/21 01:32:17;;;;;;;;;;;11.10;99.90;;;;;;4975015;28;19934;-83
2022/12/21 01:34:44;;;;;;;;;;;11.10;99.90;;;;;;4977747;28;20017;-83
2022/12/21 01:37:10;;;;;;;;;;;11.10;99.90;;;;;;4988087;28;20541;-83
2022/12/21 01:39:37;;;;;;;;;;;11.00;99.90;;;;;;4975025;28;19926;-83
2022/12/21 01:42:04;;;;;;;;;;;11.00;99.90;;;;;;4975537;28;20323;-83
2022/12/21 01:44:52;;;;;;;;;;;11.00;99.90;;;;;;4990455;28;19934;-84
2022/12/21 01:47:22;;;;;;;;;;;11.00;99.90;;;;;;4969000;28;19964;-83
2022/12/21 01:49:53;;;;;;;;;;;10.90;99.90;;;;;;4975483;28;19929;-83
2022/12/21 01:52:22;;;;;;;;;;;10.90;99.90;;;;;;5009457;28;20517;-83
2022/12/21 01:54:50;;;;;;;;;;;10.90;99.90;;;;;;4979133;28;19964;-83
2022/12/21 01:57:18;;;;;;;;;;;10.80;99.90;;;;;;4975412;28;19929;-83
2022/12/21 01:59:46;;;;;;;;;;;10.80;99.90;;;;;;4995161;28;19936;-83
2022/12/21 02:02:15;;;;;;;;;;;10.80;99.90;;;;;;5011899;28;21347;-83
2022/12/21 02:04:44;;;;;;;;;;;10.80;99.90;;;;;;5009938;28;19933;-82
2022/12/21 02:07:11;;;;;;;;;;;10.80;99.90;;;;;;4975647;28;19933;-83
2022/12/21 02:09:39;;;;;;;;;;;10.80;99.90;;;;;;4986199;28;20395;-83
2022/12/21 02:12:08;;;;;;;;;;;10.80;99.90;;;;;;4972900;28;20482;-83
2022/12/21 02:14:36;;;;;;;;;;;10.80;99.90;;;;;;4986365;28;19940;-83
2022/12/21 02:17:11;;;;;;;;;;;10.90;99.90;;;;;;4979563;28;19934;-83
2022/12/21 02:19:57;;;;;;;;;;;11.00;99.90;;;;;;4977434;28;19937;-83
2022/12/21 02:22:28;;;;;;;;;;;10.80;99.90;;;;;;4993706;28;20541;-83
2022/12/21 02:25:03;;;;;;;;;;;11.00;99.90;;;;;;4984403;28;19929;-83
2022/12/21 02:27:49;;;;;;;;;;;11.00;99.90;;;;;;4991989;28;19930;-83
2022/12/21 02:30:18;;;;;;;;;;;11.00;99.90;;;;;;4966674;28;19933;-83
2022/12/21 02:32:55;;;;;;;;;;;11.00;99.90;;;;;;4976693;28;20715;-83
2022/12/21 02:35:30;;;;;;;;;;;11.10;99.90;;;;;;4976035;28;19933;-82
2022/12/21 02:38:01;;;;;;;;;;;11.10;99.90;;;;;;4976515;28;20016;-83
2022/12/21 02:40:31;;;;;;;;;;;11.10;99.90;;;;;;4976837;28;19940;-83
2022/12/21 02:45:51;;;;;;;;;;;11.20;99.90;;;;;;4959403;28;20391;-83
2022/12/21 02:48:22;;;;;;;;;;;11.20;99.90;;;;;;4968876;28;19934;-83
2022/12/21 02:50:50;;;;;;;;;;;11.20;99.90;;;;;;4968962;28;19933;-83
2022/12/21 02:53:19;;;;;;;;;;;11.20;99.90;;;;;;4971197;28;19980;-83
2022/12/21 02:55:46;;;;;;;;;;;11.20;99.90;;;;;;4954961;28;19945;-83
2022/12/21 02:58:15;;;;;;;;;;;11.20;99.90;;;;;;4959583;28;19930;-83
2022/12/21 03:00:48;;;;;;;;;;;11.20;99.90;;;;;;4994408;28;20419;-83
2022/12/21 03:06:22;;;;;;;;;;;11.20;99.90;;;;;;4962127;28;19937;-83
2022/12/21 03:08:56;;;;;;;;;;;11.20;99.90;;;;;;4975906;28;19945;-83
2022/12/21 03:11:25;;;;;;;;;;;11.10;99.90;;;;;;4998932;28;19926;-83
2022/12/21 03:13:59;;;;;;;;;;;11.10;99.90;;;;;;4992249;28;19926;-83
2022/12/21 03:16:30;;;;;;;;;;;11.10;99.90;;;;;;4985400;28;21285;-83
2022/12/21 03:18:59;;;;;;;;;;;11.10;99.90;;;;;;4975164;28;19945;-83
2022/12/21 03:21:31;;;;;;;;;;;11.10;99.90;;;;;;4978370;28;20403;-83
2022/12/21 03:24:00;;;;;;;;;;;11.10;99.90;;;;;;4978487;28;19930;-83
2022/12/21 03:26:29;;;;;;;;;;;11.10;99.90;;;;;;4975763;28;19961;-83
2022/12/21 03:28:58;;;;;;;;;;;11.20;99.90;;;;;;4977442;28;19930;-83
2022/12/21 03:31:28;;;;;;;;;;;11.20;99.90;;;;;;4990090;28;19934;-83
2022/12/21 03:33:59;;;;;;;;;;;11.10;99.90;;;;;;4982987;28;19934;-83
2022/12/21 03:36:29;;;;;;;;;;;11.20;99.90;;;;;;5006216;28;19913;-84
2022/12/21 03:38:58;;;;;;;;;;;11.20;99.90;;;;;;4997677;28;19938;-83
2022/12/21 03:41:29;;;;;;;;;;;11.20;99.90;;;;;;4985941;28;19949;-83
2022/12/21 03:43:57;;;;;;;;;;;11.20;99.90;;;;;;4991283;28;19950;-83
2022/12/21 03:46:26;;;;;;;;;;;11.20;99.90;;;;;;4979364;28;19941;-83
2022/12/21 03:48:54;;;;;;;;;;;11.20;99.90;;;;;;4979398;28;19944;-83
2022/12/21 03:51:23;;;;;;;;;;;11.20;99.90;;;;;;4993051;28;19934;-83
2022/12/21 03:53:51;;;;;;;;;;;11.20;99.90;;;;;;4976463;28;21471;-83
2022/12/21 03:56:22;;;;;;;;;;;11.20;99.90;;;;;;4980826;28;19926;-83
2022/12/21 03:58:48;;;;;;;;;;;11.20;99.90;;;;;;4981750;28;19930;-83
2022/12/21 04:01:18;;;;;;;;;;;11.20;99.90;;;;;;4980103;28;19930;-83
2022/12/21 04:03:47;;;;;;;;;;;11.20;99.90;;;;;;4980171;28;19936;-83
2022/12/21 04:06:16;;;;;;;;;;;11.20;99.90;;;;;;4992971;28;19949;-83
2022/12/21 04:08:43;;;;;;;;;;;11.20;99.90;;;;;;4980643;28;19936;-83
2022/12/21 04:12:36;;;;;;;;;;;11.20;99.90;;;;;;4977151;28;19930;-83
2022/12/21 04:13:58;;;;;;;;;;;11.20;99.90;;;;;;4993329;28;19941;-83
2022/12/21 04:16:25;;;;;;;;;;;11.20;99.90;;;;;;4993330;28;19961;-83
2022/12/21 04:21:36;;;;;;;;;;;11.80;99.90;;;;;;4979612;28;19940;-83
2022/12/21 04:29:33;;;;;;;;;;;11.20;99.90;;;;;;4976631;28;19934;-83
2022/12/21 04:32:00;;;;;;;;;;;11.10;99.90;;;;;;4991994;28;19930;-83
2022/12/21 04:34:26;;;;;;;;;;;11.10;99.90;;;;;;4980565;28;19926;-82
2022/12/21 04:39:37;;;;;;;;;;;11.10;99.90;;;;;;4979746;28;19934;-83
2022/12/21 04:42:04;;;;;;;;;;;11.10;99.90;;;;;;4974944;28;19934;-83
2022/12/21 04:44:32;;;;;;;;;;;11.10;99.90;;;;;;4976744;28;20395;-83
2022/12/21 04:46:59;;;;;;;;;;;11.10;99.90;;;;;;4992442;28;20029;-83
2022/12/21 04:49:26;;;;;;;;;;;11.10;99.90;;;;;;4997005;28;20003;-83
2022/12/21 04:51:53;;;;;;;;;;;11.10;99.90;;;;;;4977906;28;19930;-83
2022/12/21 04:54:19;;;;;;;;;;;11.10;99.90;;;;;;4994819;28;19941;-83
2022/12/21 04:56:46;;;;;;;;;;;11.00;99.90;;;;;;4994530;28;20253;-83
2022/12/21 04:59:13;;;;;;;;;;;10.90;99.90;;;;;;4977213;28;19930;-83
2022/12/21 05:01:41;;;;;;;;;;;10.90;99.90;;;;;;4977739;28;19934;-83
2022/12/21 05:04:10;;;;;;;;;;;10.90;99.90;;;;;;4979470;28;20419;-83
2022/12/21 05:06:37;;;;;;;;;;;10.80;99.90;;;;;;4980393;28;20379;-83
2022/12/21 05:09:04;;;;;;;;;;;10.80;99.90;;;;;;4977940;28;20035;-83
2022/12/21 05:11:30;;;;;;;;;;;10.80;99.90;;;;;;4974731;28;19961;-83
2022/12/21 05:13:58;;;;;;;;;;;10.70;99.90;;;;;;4978131;28;20008;-83
2022/12/21 05:16:25;;;;;;;;;;;10.80;99.90;;;;;;5007333;28;19930;-82
2022/12/21 05:18:53;;;;;;;;;;;10.80;99.90;;;;;;4976843;28;20323;-83
2022/12/21 05:21:20;;;;;;;;;;;10.80;99.90;;;;;;4973975;28;19949;-83
2022/12/21 05:23:47;;;;;;;;;;;10.80;99.90;;;;;;4995206;28;20412;-83
2022/12/21 05:26:14;;;;;;;;;;;10.80;99.90;;;;;;4977276;28;19961;-83
2022/12/21 05:28:47;;;;;;;;;;;10.80;99.90;;;;;;5001026;28;19960;-83
2022/12/21 05:31:14;;;;;;;;;;;10.70;99.90;;;;;;4985806;28;20862;-83
2022/12/21 05:33:41;;;;;;;;;;;10.70;99.90;;;;;;4978275;28;19937;-82
2022/12/21 05:36:08;;;;;;;;;;;;;;;;;;4992889;28;19937;-84
2022/12/21 05:38:37;;;;;;;;;;;10.80;99.90;;;;;;4983548;28;19933;-83
2022/12/21 05:41:04;;;;;;;;;;;10.70;99.90;;;;;;4960512;28;19926;-84
2022/12/21 05:43:31;;;;;;;;;;;10.70;99.90;;;;;;4966542;28;19930;-84
2022/12/21 05:46:00;;;;;;;;;;;10.70;99.90;;;;;;4972834;28;19937;-83
2022/12/21 05:48:27;;;;;;;;;;;10.70;99.90;;;;;;4979487;28;19936;-84
2022/12/21 05:50:53;;;;;;;;;;;10.70;99.90;;;;;;4968096;28;19937;-83
2022/12/21 05:53:20;;;;;;;;;;;10.70;99.90;;;;;;4973338;28;19930;-83
2022/12/21 05:55:48;;;;;;;;;;;10.70;99.90;;;;;;4986630;28;20423;-83
2022/12/21 05:58:15;;;;;;;;;;;10.70;99.90;;;;;;4972275;28;20343;-83
2022/12/21 06:00:42;;;;;;;;;;;10.70;99.90;;;;;;4986761;28;19934;-84
2022/12/21 06:03:09;;;;;;;;;;;10.70;99.90;;;;;;4972894;28;19941;-84
2022/12/21 06:05:36;;;;;;;;;;;10.70;99.90;;;;;;4982362;28;19933;-85
2022/12/21 06:08:03;;;;;;;;;;;10.70;99.90;;;;;;4961804;28;20028;-85
2022/12/21 06:10:35;;;;;;;;;;;10.70;99.90;;;;;;5009157;28;20661;-85
2022/12/21 06:13:03;;;;;;;;;;;10.70;99.90;;;;;;4979004;28;19930;-84
2022/12/21 06:15:30;;;;;;;;;;;10.70;99.90;;;;;;4985570;28;19948;-84
2022/12/21 06:17:57;;;;;;;;;;;10.60;99.90;;;;;;4959498;28;19937;-84
2022/12/21 06:20:24;;;;;;;;;;;10.60;99.90;;;;;;4968928;28;19927;-84
2022/12/21 06:22:51;;;;;;;;;;;10.60;99.90;;;;;;4965351;28;19930;-85
2022/12/21 06:25:18;;;;;;;;;;;10.60;99.90;;;;;;4966035;28;19930;-88
2022/12/21 06:27:45;;;;;;;;;;;10.50;99.90;;;;;;4978423;28;19927;-84
2022/12/21 06:30:13;;;;;;;;;;;10.50;99.90;;;;;;4971246;28;20013;-85
2022/12/21 06:32:40;;;;;;;;;;;10.50;99.90;;;;;;4980279;28;19926;-85
2022/12/21 06:35:08;;;;;;;;;;;10.50;99.90;;;;;;4960918;28;19974;-84
2022/12/21 06:37:35;;;;;;;;;;;10.50;99.90;;;;;;4975140;28;19968;-84
2022/12/21 06:40:02;;;;;;;;;;;10.50;99.90;;;;;;4980601;28;19926;-85
2022/12/21 06:42:28;;;;;;;;;;;10.50;99.90;;;;;;4968339;28;20502;-85
2022/12/21 06:44:57;;;;;;;;;;;10.50;99.90;;;;;;4964334;28;19926;-85
2022/12/21 06:47:26;;;;;;;;;;;10.50;99.90;;;;;;4978263;28;20367;-85
2022/12/21 06:49:52;;;;;;;;;;;10.50;99.90;;;;;;4976347;28;20179;-85
2022/12/21 06:52:20;;;;;;;;;;;10.50;99.90;;;;;;4972603;28;20026;-84
2022/12/21 06:54:47;;;;;;;;;;;10.50;99.90;;;;;;4975947;28;19933;-85
2022/12/21 06:57:14;;;;;;;;;;;10.40;99.90;;;;;;4974442;28;20028;-84
2022/12/21 06:59:41;;;;;;;;;;;10.40;99.90;;;;;;4969037;28;19930;-84
2022/12/21 07:02:08;;;;;;;;;;;10.30;99.90;;;;;;4973186;28;20338;-87
2022/12/21 07:04:37;;;;;;;;;;;10.30;99.90;;;;;;4969498;28;19926;-87
2022/12/21 07:07:03;;;;;;;;;;;10.30;99.90;;;;;;4971453;28;19929;-87
2022/12/21 07:09:30;;;;;;;;;;;10.10;99.90;;;;;;4967430;28;19934;-87
2022/12/21 07:11:57;;;;;;;;;;;10.10;99.90;;;;;;4965434;28;20370;-87
2022/12/21 07:14:23;;;;;;;;;;;10.00;99.90;;;;;;4968488;28;19926;-88
2022/12/21 07:16:50;;;;;;;;;;;10.00;99.90;;;;;;4968399;28;19941;-87
2022/12/21 07:19:17;;;;;;;;;;;10.00;99.90;;;;;;4983592;28;19977;-87
2022/12/21 07:21:46;;;;;;;;;;;10.00;99.90;;;;;;4969049;28;19957;-88
2022/12/21 07:24:12;;;;;;;;;;;9.90;99.90;;;;;;4970547;28;19985;-87
2022/12/21 07:26:39;;;;;;;;;;;9.90;99.90;;;;;;4984831;28;19932;-87
2022/12/21 07:29:06;;;;;;;;;;;9.90;99.90;;;;;;4971539;28;19933;-87
2022/12/21 07:31:33;;;;;;;;;;;9.90;99.90;;;;;;4994295;28;19921;-87
2022/12/21 07:33:59;;;;;;;;;;;9.90;99.90;;;;;;4978214;28;19936;-88
2022/12/21 07:36:26;;;;;;;;;;;9.90;99.90;;;;;;4982198;28;19933;-87
2022/12/21 07:38:55;;;;;;;;;;;9.80;99.90;;;;;;5008996;28;19922;-86
2022/12/21 07:41:22;;;;;;;;;;;9.80;99.90;;;;;;5005675;28;19930;-87
2022/12/21 07:43:56;;;;;;;;;;;9.70;99.90;;;;;;4995768;28;19934;-87
2022/12/21 07:46:51;;;;;;;;;;;9.70;99.90;;;;;;4995222;28;19950;-85
2022/12/21 07:49:21;;;;;;;;;;;9.70;99.90;;;;;;4997952;28;19997;-88
2022/12/21 07:51:49;;;;;;;;;;;9.70;99.90;;;;;;5009203;28;19977;-87
2022/12/21 07:54:18;;;;;;;;;;;9.70;99.90;;;;;;4976664;28;20037;-87
2022/12/21 07:56:45;;;;;;;;;;;9.70;99.90;;;;;;4977225;28;19933;-87
2022/12/21 07:59:11;;;;;;;;;;;9.70;99.90;;;;;;4975671;28;20029;-87
2022/12/21 08:01:38;;;;;;;;;;;9.70;99.90;;;;;;4972712;28;20414;-86
2022/12/21 08:04:07;;;;;;;;;;;9.70;99.90;;;;;;4969333;28;19930;-86
2022/12/21 08:06:34;;;;;;;;;;;9.70;99.90;;;;;;4990261;28;19934;-85
2022/12/21 08:09:01;;;;;;;;;;;9.70;99.90;;;;;;4989468;28;19926;-85
2022/12/21 08:11:30;;;;;;;;;;;9.60;99.90;;;;;;4976800;28;20032;-86
2022/12/21 08:13:57;;;;;;;;;;;9.70;99.90;;;;;;4973435;28;20523;-86
2022/12/21 08:16:24;;;;;;;;;;;9.60;99.90;;;;;;4986493;28;19930;-85
2022/12/21 08:18:50;;;;;;;;;;;9.60;99.90;;;;;;4985658;28;19930;-86
2022/12/21 08:21:17;;;;;;;;;;;9.60;99.90;;;;;;4968598;28;19930;-86
2022/12/21 08:23:47;;;;;;;;;;;9.70;99.90;;;;;;4986129;28;19931;-85
2022/12/21 08:26:13;;;;;;;;;;;9.70;99.90;;;;;;4972660;28;19937;-85
2022/12/21 08:28:43;;;;;;;;;;;9.70;99.90;;;;;;4989524;28;19930;-84
2022/12/21 08:31:11;;;;;;;;;;;9.80;99.90;;;;;;5001140;28;19934;-85
2022/12/21 08:33:41;;;;;;;;;;;9.80;99.90;;;;;;4992606;28;19926;-86
2022/12/21 08:36:09;;;;;;;;;;;9.80;99.90;;;;;;4976155;28;19937;-86
2022/12/21 08:38:36;;;;;;;;;;;9.90;99.90;;;;;;4976102;28;19938;-86
2022/12/21 08:41:02;;;;;;;;;;;9.90;99.90;;;;;;4986157;28;19933;-85
2022/12/21 08:43:30;;;;;;;;;;;9.90;99.90;;;;;;4973064;28;19930;-83
2022/12/21 08:45:58;;;;;;;;;;;9.90;99.90;;;;;;4974986;28;19937;-83
2022/12/21 08:48:25;;;;;;;;;;;10.00;99.90;;;;;;4974680;28;19930;-82
2022/12/21 08:50:51;;;;;;;;;;;10.00;99.90;;;;;;4976520;28;20292;-82
2022/12/21 08:53:18;;;;;;;;;;;10.00;99.90;;;;;;4984969;28;19940;-83
2022/12/21 08:55:47;;;;;;;;;;;10.00;99.90;;;;;;4981712;28;19926;-82
2022/12/21 08:58:14;;;;;;;;;;;10.00;99.90;;;;;;4990338;28;19930;-84
2022/12/21 09:00:42;;;;;;;;;;;10.00;99.90;;;;;;4971090;28;20407;-82
2022/12/21 09:03:10;;;;;;;;;;;10.00;99.90;;;;;;4979873;28;19930;-83
2022/12/21 09:05:37;;;;;;;;;;;10.00;99.90;;;;;;4970611;28;19950;-83
2022/12/21 09:08:05;;;;;;;;;;;10.00;99.90;;;;;;4967671;28;19974;-82
2022/12/21 09:10:40;;;;;;;;;;;9.90;99.90;;;;;;4988330;28;20049;-83
2022/12/21 09:13:12;;;;;;;;;;;9.90;99.90;;;;;;4987353;28;19934;-83
2022/12/21 09:15:41;;;;;;;;;;;9.90;99.90;;;;;;4970540;28;20038;-82
2022/12/21 09:18:08;;;;;;;;;;;9.90;99.90;;;;;;4970972;28;19937;-83
2022/12/21 09:20:36;;;;;;;;;;;9.80;99.90;;;;;;4972479;28;19940;-82
2022/12/21 09:23:03;;;;;;;;;;;9.90;99.90;;;;;;4975440;28;19937;-82
2022/12/21 09:25:30;;;;;;;;;;;10.00;99.90;;;;;;4972314;28;19953;-82
2022/12/21 09:27:59;;;;;;;;;;;10.00;99.90;;;;;;5005581;28;19937;-83
2022/12/21 09:30:26;;;;;;;;;;;10.10;99.90;;;;;;4975957;28;19927;-83
2022/12/21 09:32:53;;;;;;;;;;;10.20;99.90;;;;;;4970571;28;19941;-83
2022/12/21 09:35:20;;;;;;;;;;;10.30;99.90;;;;;;4970847;28;19930;-83
2022/12/21 09:37:49;;;;;;;;;;;10.50;99.90;;;;;;4970947;28;19937;-84
2022/12/21 09:40:17;;;;;;;;;;;10.50;99.90;;;;;;4987622;28;19953;-85
2022/12/21 09:42:48;;;;;;;;;;;10.60;99.90;;;;;;4983658;28;19930;-82
2022/12/21 09:45:20;;;;;;;;;;;10.60;99.90;;;;;;4971903;28;20016;-83
2022/12/21 09:47:50;;;;;;;;;;;10.60;99.90;;;;;;4964030;28;19938;-85
2022/12/21 09:50:20;;;;;;;;;;;10.50;99.90;;;;;;4969503;28;19936;-85
2022/12/21 09:52:50;;;;;;;;;;;10.40;99.90;;;;;;4966429;28;20045;-82
2022/12/21 09:55:18;;;;;;;;;;;10.30;99.90;;;;;;4988555;28;19961;-85
2022/12/21 09:57:45;;;;;;;;;;;10.30;99.90;;;;;;4970802;28;19930;-84
2022/12/21 10:00:18;;;;;;;;;;;10.40;99.90;;;;;;4964992;28;19931;-85
2022/12/21 10:03:02;;;;;;;;;;;10.50;99.90;;;;;;4968715;28;19926;-85
2022/12/21 10:05:39;;;;;;;;;;;10.50;99.90;;;;;;4973935;28;19937;-85
2022/12/21 10:08:22;;;;;;;;;;;10.50;99.90;;;;;;4988667;28;19930;-84
2022/12/21 10:10:54;;;;;;;;;;;10.50;99.90;;;;;;4993912;28;19930;-83
2022/12/21 10:13:28;;;;;;;;;;;10.60;99.90;;;;;;4984160;28;19930;-83
2022/12/21 10:16:03;;;;;;;;;;;10.80;99.90;;;;;;4969460;28;19937;-83
2022/12/21 10:18:32;;;;;;;;;;;10.80;99.90;;;;;;4977937;28;20430;-83
2022/12/21 10:21:04;;;;;;;;;;;11.00;99.90;;;;;;4967028;28;19938;-83
2022/12/21 10:23:33;;;;;;;;;;;11.20;99.90;;;;;;4972878;28;19934;-84
2022/12/21 10:26:02;;;;;;;;;;;11.30;99.90;;;;;;4964928;28;19931;-83
2022/12/21 10:28:38;;;;;;;;;;;11.40;99.90;;;;;;4966957;28;20003;-84
2022/12/21 10:31:06;;;;;;;;;;;11.40;99.90;;;;;;4977532;28;19926;-83
2022/12/21 10:33:34;;;;;;;;;;;11.40;99.90;;;;;;4979118;28;20024;-83
2022/12/21 10:36:03;;;;;;;;;;;11.30;99.90;;;;;;4972558;28;19980;-83
2022/12/21 10:38:32;;;;;;;;;;;11.10;99.90;;;;;;4972012;28;20391;-84
2022/12/21 10:41:00;;;;;;;;;;;11.00;99.90;;;;;;4972876;28;19949;-83
2022/12/21 10:43:27;;;;;;;;;;;10.90;99.90;;;;;;4976044;28;19988;-84
2022/12/21 10:45:54;;;;;;;;;;;10.80;99.90;;;;;;4973631;28;19930;-84
2022/12/21 10:48:21;;;;;;;;;;;10.80;99.90;;;;;;4972813;28;19926;-84
2022/12/21 10:50:49;;;;;;;;;;;10.70;99.90;;;;;;4982484;28;19933;-83
2022/12/21 10:53:22;;;;;;;;;;;10.90;99.90;;;;;;4975478;28;19965;-83
2022/12/21 10:55:51;;;;;;;;;;;11.00;99.90;;;;;;4967651;28;19941;-83
2022/12/21 10:58:19;;;;;;;;;;;11.10;99.90;;;;;;4968205;28;20017;-83
2022/12/21 11:00:50;;;;;;;;;;;11.30;99.90;;;;;;4966417;28;20352;-84
2022/12/21 11:03:25;;;;;;;;;;;11.40;99.90;;;;;;4973357;28;20015;-83
2022/12/21 11:05:51;;;;;;;;;;;11.50;99.90;;;;;;4978243;28;19926;-83
2022/12/21 11:08:22;;;;;;;;;;;11.60;99.90;;;;;;4976642;28;19929;-83
2022/12/21 11:10:50;;;;;;;;;;;11.60;99.90;;;;;;4970111;28;19980;-83
2022/12/21 11:13:19;;;;;;;;;;;11.60;99.90;;;;;;4977106;28;19930;-84
2022/12/21 11:15:57;;;;;;;;;;;11.60;99.90;;;;;;4971646;28;19934;-83
2022/12/21 11:18:31;;;;;;;;;;;11.60;99.90;;;;;;4965969;28;19985;-83
2022/12/21 11:20:58;;;;;;;;;;;11.60;99.90;;;;;;5001073;28;19976;-81
2022/12/21 11:23:26;;;;;;;;;;;11.70;99.90;;;;;;4971013;28;19961;-81
2022/12/21 11:25:53;;;;;;;;;;;12.90;99.90;;;;;;4991404;28;19934;-81
2022/12/21 11:28:22;;;;;;;;;;;11.70;99.90;;;;;;4979737;28;19988;-80
2022/12/21 11:30:55;;;;;;;;;;;11.70;99.90;;;;;;4984644;28;19972;-81
2022/12/21 11:33:22;;;;;;;;;;;11.70;99.90;;;;;;4973175;28;19930;-84
2022/12/21 11:36:09;;;;;;;;;;;11.70;99.90;;;;;;4972100;28;19936;-83
2022/12/21 11:38:37;;;;;;;;;;;11.70;99.90;;;;;;4987659;28;19933;-81
2022/12/21 11:41:09;;;;;;;;;;;11.70;99.90;;;;;;4973189;28;19937;-83
2022/12/21 11:43:45;;;;;;;;;;;11.80;99.90;;;;;;4973133;28;19980;-80
2022/12/21 11:46:17;;;;;;;;;;;12.10;99.90;;;;;;4975479;28;19977;-83
2022/12/21 11:48:49;;;;;;;;;;;11.80;99.90;;;;;;4970678;28;19934;-83
2022/12/21 11:51:18;;;;;;;;;;;11.80;99.90;;;;;;4968873;28;20013;-82
2022/12/21 11:54:02;;;;;;;;;;;11.80;99.90;;;;;;4982320;28;20013;-82
2022/12/21 11:56:32;;;;;;;;;;;11.80;99.90;;;;;;4974455;28;19926;-82
2022/12/21 11:59:06;;;;;;;;;;;11.70;99.90;;;;;;4961505;28;19927;-82
2022/12/21 12:01:41;;;;;;;;;;;11.70;99.90;;;;;;4953589;28;20455;-82
2022/12/21 12:04:17;;;;;;;;;;;11.60;99.90;;;;;;4955113;28;19931;-82
2022/12/21 12:07:07;;;;;;;;;;;11.60;99.90;;;;;;4953041;28;19941;-82
2022/12/21 12:09:47;;;;;;;;;;;11.50;99.90;;;;;;4961285;28;20037;-82
2022/12/21 12:12:17;;;;;;;;;;;11.50;99.90;;;;;;4982190;28;19937;-83
2022/12/21 12:15:10;;;;;;;;;;;11.50;99.90;;;;;;4972691;28;19930;-82
2022/12/21 12:17:45;;;;;;;;;;;11.50;99.90;;;;;;4964753;28;19941;-82
2022/12/21 12:20:23;;;;;;;;;;;11.40;99.90;;;;;;5006379;28;19930;-82
2022/12/21 12:22:55;;;;;;;;;;;11.40;99.90;;;;;;4975595;28;20013;-82
2022/12/21 12:25:28;;;;;;;;;;;11.40;99.90;;;;;;4976008;28;19997;-81
2022/12/21 12:28:04;;;;;;;;;;;11.40;99.90;;;;;;4971187;28;19927;-81
2022/12/21 12:30:34;;;;;;;;;;;11.40;99.90;;;;;;4975000;28;19934;-81
2022/12/21 12:33:07;;;;;;;;;;;11.40;99.90;;;;;;4988192;28;20352;-82
2022/12/21 12:35:49;;;;;;;;;;;11.30;99.90;;;;;;4964125;28;19944;-82
2022/12/21 12:38:24;;;;;;;;;;;11.30;99.90;;;;;;4961840;28;20006;-82
2022/12/21 12:40:57;;;;;;;;;;;11.30;99.90;;;;;;5002276;28;19958;-82
2022/12/21 12:43:31;;;;;;;;;;;11.20;99.90;;;;;;4973874;28;19937;-82
2022/12/21 12:46:01;;;;;;;;;;;11.20;99.90;;;;;;4988082;28;19936;-82
2022/12/21 12:48:35;;;;;;;;;;;11.10;99.90;;;;;;4978855;28;19926;-81
2022/12/21 12:51:05;;;;;;;;;;;11.00;99.90;;;;;;4991122;28;19944;-81
2022/12/21 12:53:37;;;;;;;;;;;11.10;99.90;;;;;;4991485;28;19926;-81
2022/12/21 12:56:08;;;;;;;;;;;11.00;99.90;;;;;;4968862;28;19926;-81
2022/12/21 12:58:40;;;;;;;;;;;11.00;99.90;;;;;;4979375;28;19993;-81
2022/12/21 13:01:10;;;;;;;;;;;11.00;99.90;;;;;;4981445;28;19997;-81
2022/12/21 13:03:49;;;;;;;;;;;11.00;99.90;;;;;;4979930;28;19945;-81
2022/12/21 13:06:21;;;;;;;;;;;10.90;99.90;;;;;;4993083;28;19930;-81
2022/12/21 13:08:53;;;;;;;;;;;10.90;99.90;;;;;;4977967;28;19926;-82
2022/12/21 13:11:25;;;;;;;;;;;10.90;99.90;;;;;;4994579;28;19930;-81
2022/12/21 13:13:58;;;;;;;;;;;10.90;99.90;;;;;;4975159;28;20045;-82
2022/12/21 13:16:28;;;;;;;;;;;10.90;99.90;;;;;;4965511;28;19935;-82
2022/12/21 13:18:57;;;;;;;;;;;10.90;99.90;;;;;;4995807;28;19926;-82
2022/12/21 13:21:27;;;;;;;;;;;10.90;99.90;;;;;;4980533;28;19926;-82
2022/12/21 13:23:57;;;;;;;;;;;10.90;99.90;;;;;;4989009;28;19957;-81
2022/12/21 13:26:26;;;;;;;;;;;10.90;99.90;;;;;;4982977;28;19936;-82
2022/12/21 13:28:57;;;;;;;;;;;10.90;99.90;;;;;;4987914;28;20178;-83
2022/12/21 13:31:27;;;;;;;;;;;10.90;99.90;;;;;;4983471;28;19926;-83
2022/12/21 13:33:55;;;;;;;;;;;10.90;99.90;;;;;;4993033;28;19929;-83
2022/12/21 13:36:25;;;;;;;;;;;11.00;99.90;;;;;;4978590;28;20349;-82
2022/12/21 13:38:57;;;;;;;;;;;11.00;99.90;;;;;;4973479;28;19927;-83
2022/12/21 13:41:27;;;;;;;;;;;10.90;99.90;;;;;;4976475;28;19925;-83
2022/12/21 13:43:55;;;;;;;;;;;10.90;99.90;;;;;;4977111;28;20304;-83
2022/12/21 13:46:22;;;;;;;;;;;10.90;99.90;;;;;;4976788;28;19950;-83
2022/12/21 13:48:51;;;;;;;;;;;10.80;99.90;;;;;;4977432;28;19953;-83
2022/12/21 13:51:23;;;;;;;;;;;10.80;99.90;;;;;;4989397;28;19930;-83
2022/12/21 13:53:59;;;;;;;;;;;10.80;99.90;;;;;;4967530;28;19930;-83
2022/12/21 13:56:37;;;;;;;;;;;10.80;99.90;;;;;;4986059;28;19937;-83
2022/12/21 13:59:09;;;;;;;;;;;10.80;99.90;;;;;;4972736;28;19934;-83
2022/12/21 14:01:40;;;;;;;;;;;10.80;99.90;;;;;;4974097;28;19962;-82
2022/12/21 14:04:11;;;;;;;;;;;10.70;99.90;;;;;;4975247;28;19949;-83
2022/12/21 14:06:56;;;;;;;;;;;10.70;99.90;;;;;;4981846;28;19929;-83
2022/12/21 14:09:30;;;;;;;;;;;10.70;99.90;;;;;;4992840;28;19926;-83
2022/12/21 14:12:04;;;;;;;;;;;10.60;99.90;;;;;;4990846;28;19937;-83
2022/12/21 14:14:41;;;;;;;;;;;10.60;99.90;;;;;;4973721;28;19937;-83
2022/12/21 14:17:15;;;;;;;;;;;10.60;99.90;;;;;;4976024;28;19940;-83
2022/12/21 14:19:49;;;;;;;;;;;10.50;99.90;;;;;;4974763;28;19930;-84
2022/12/21 14:22:30;;;;;;;;;;;10.50;99.90;;;;;;4980985;28;19941;-84
2022/12/21 14:25:00;;;;;;;;;;;10.50;99.90;;;;;;4975014;28;19930;-84
2022/12/21 14:27:26;;;;;;;;;;;10.40;99.90;;;;;;4970537;28;19984;-83
2022/12/21 14:30:03;;;;;;;;;;;10.40;99.90;;;;;;4973257;28;19933;-84
2022/12/21 14:32:30;;;;;;;;;;;10.30;99.90;;;;;;4987551;28;19934;-82
2022/12/21 14:34:58;;;;;;;;;;;10.30;99.90;;;;;;4974917;28;19980;-82
2022/12/21 14:37:26;;;;;;;;;;;10.20;99.90;;;;;;5008454;28;19956;-82
2022/12/21 14:40:21;;;;;;;;;;;10.10;99.90;;;;;;4979317;28;19930;-81
2022/12/21 14:42:57;;;;;;;;;;;10.10;99.90;;;;;;4976092;28;20028;-82
2022/12/21 14:45:26;;;;;;;;;;;10.00;99.90;;;;;;4975053;28;19926;-80
2022/12/21 14:48:21;;;;;;;;;;;9.90;99.90;;;;;;4975433;28;19963;-82
2022/12/21 14:51:06;;;;;;;;;;;10.00;99.90;;;;;;4972453;28;19937;-83